createdAt,value
2023-05-16T00:00:58.293Z,11.33
2023-05-16T00:01:58.957Z,11.34
2023-05-16T00:03:00.200Z,11.27
2023-05-16T00:04:00.441Z,11.33
2023-05-16T00:05:00.694Z,11.31
2023-05-16T00:06:01.352Z,11.34
2023-05-16T00:07:01.962Z,11.31
2023-05-16T00:08:02.870Z,11.26
2023-05-16T00:09:02.778Z,11.33
2023-05-16T00:10:03.270Z,11.31
2023-05-16T00:11:03.629Z,11.2
2023-05-16T00:12:04.322Z,11.31
2023-05-16T00:13:05.042Z,11.31
2023-05-16T00:14:05.816Z,11.26
2023-05-16T00:15:06.381Z,11.23
2023-05-16T00:16:07.156Z,11.27
2023-05-16T00:17:07.918Z,11.2
2023-05-16T00:18:08.274Z,11.34
2023-05-16T00:19:08.967Z,11.26
2023-05-16T00:20:08.878Z,11.2
2023-05-16T00:21:09.563Z,11.2
2023-05-16T00:22:10.382Z,11.19
2023-05-16T00:23:10.907Z,11.19
2023-05-16T00:24:11.404Z,11.27
2023-05-16T00:25:11.690Z,11.18
2023-05-16T00:26:12.766Z,11.23
2023-05-16T00:27:13.281Z,11.19
2023-05-16T00:28:14.209Z,11.18
2023-05-16T00:29:14.984Z,11.19
2023-05-16T00:30:15.264Z,11.25
2023-05-16T00:31:16.022Z,11.19
2023-05-16T00:32:15.987Z,11.25
2023-05-16T00:33:16.484Z,11.18
2023-05-16T00:34:17.153Z,11.19
2023-05-16T00:35:17.612Z,11.19
2023-05-16T00:36:18.013Z,11.25
2023-05-16T00:37:18.331Z,11.23
2023-05-16T00:38:18.402Z,11.18
2023-05-16T00:39:18.910Z,11.18
2023-05-16T00:40:19.615Z,11.16
2023-05-16T00:41:19.616Z,11.23
2023-05-16T00:42:19.994Z,11.22
2023-05-16T00:43:21.076Z,11.16
2023-05-16T00:44:21.813Z,11.16
2023-05-16T00:45:22.345Z,11.13
2023-05-16T00:46:23.244Z,11.13
2023-05-16T00:47:24.165Z,11.15
2023-05-16T00:48:25.210Z,11.16
2023-05-16T00:49:26.110Z,11.23
2023-05-16T00:50:27.054Z,11.3
2023-05-16T00:51:26.922Z,11.26
2023-05-16T00:52:27.644Z,11.19
2023-05-16T00:53:28.752Z,11.25
2023-05-16T00:54:28.451Z,11.22
2023-05-16T00:55:28.954Z,11.22
2023-05-16T00:56:29.797Z,11.19
2023-05-16T00:57:30.694Z,11.18
2023-05-16T00:58:30.827Z,11.18
2023-05-16T00:59:30.772Z,11.22
2023-05-16T01:00:31.355Z,11.23
2023-05-16T01:01:31.616Z,11.19
2023-05-16T01:02:32.102Z,11.26
2023-05-16T01:03:32.783Z,11.22
2023-05-16T01:04:32.616Z,11.19
2023-05-16T01:05:33.795Z,11.23
2023-05-16T01:06:33.805Z,11.23
2023-05-16T01:07:34.331Z,11.19
2023-05-16T01:08:35.044Z,11.22
2023-05-16T01:09:35.160Z,11.2
2023-05-16T01:10:35.466Z,11.2
2023-05-16T01:11:36.170Z,11.15
2023-05-16T01:12:36.926Z,11.26
2023-05-16T01:13:37.450Z,11.26
2023-05-16T01:14:37.981Z,11.22
2023-05-16T01:15:38.767Z,11.23
2023-05-16T01:16:39.654Z,11.31
2023-05-16T01:17:40.484Z,11.2
2023-05-16T01:18:40.524Z,11.2
2023-05-16T01:19:41.159Z,11.19
2023-05-16T01:20:41.678Z,11.3
2023-05-16T01:21:42.041Z,11.2
2023-05-16T01:22:42.744Z,11.18
2023-05-16T01:23:43.746Z,11.19
2023-05-16T01:24:44.255Z,11.26
2023-05-16T01:25:44.547Z,11.23
2023-05-16T01:26:45.356Z,11.18
2023-05-16T01:27:45.846Z,11.19
2023-05-16T01:28:46.585Z,11.23
2023-05-16T01:29:47.168Z,11.25
2023-05-16T01:30:47.526Z,11.22
2023-05-16T01:31:48.292Z,11.22
2023-05-16T01:32:49.156Z,11.27
2023-05-16T01:33:49.592Z,11.26
2023-05-16T01:34:49.506Z,11.22
2023-05-16T01:35:50.034Z,11.27
2023-05-16T01:36:50.646Z,11.26
2023-05-16T01:37:51.557Z,11.25
2023-05-16T01:38:52.478Z,11.16
2023-05-16T01:39:52.410Z,11.23
2023-05-16T01:40:53.364Z,11.22
2023-05-16T01:41:54.072Z,11.23
2023-05-16T01:42:54.598Z,11.16
2023-05-16T01:43:55.719Z,11.27
2023-05-16T01:44:56.257Z,11.22
2023-05-16T01:45:56.982Z,11.27
2023-05-16T01:46:58.006Z,11.19
2023-05-16T01:47:59.107Z,11.26
2023-05-16T01:48:59.492Z,11.19
2023-05-16T01:50:00.018Z,11.25
2023-05-16T01:51:00.930Z,11.25
2023-05-16T01:52:01.840Z,11.26
2023-05-16T01:53:02.154Z,11.25
2023-05-16T01:54:02.861Z,11.25
2023-05-16T01:55:03.559Z,11.18
2023-05-16T01:56:04.258Z,11.25
2023-05-16T01:57:04.707Z,11.23
2023-05-16T01:58:05.430Z,11.18
2023-05-16T01:59:05.967Z,11.22
2023-05-16T02:00:06.933Z,11.25
2023-05-16T02:01:07.680Z,11.2
2023-05-16T02:02:08.801Z,11.22
2023-05-16T02:03:09.541Z,11.25
2023-05-16T02:04:09.196Z,11.22
2023-05-16T02:05:10.050Z,11.23
2023-05-16T02:06:10.349Z,11.2
2023-05-16T02:07:11.854Z,11.27
2023-05-16T02:08:12.560Z,11.26
2023-05-16T02:09:13.460Z,11.31
2023-05-16T02:10:13.374Z,11.38
2023-05-16T02:11:13.858Z,11.34
2023-05-16T02:12:14.166Z,11.31
2023-05-16T02:13:14.862Z,11.31
2023-05-16T02:14:15.562Z,11.33
2023-05-16T02:15:16.185Z,11.26
2023-05-16T02:16:17.430Z,11.27
2023-05-16T02:17:17.328Z,11.33
2023-05-16T02:18:18.271Z,11.31
2023-05-16T02:19:18.648Z,11.34
2023-05-16T02:20:18.255Z,11.33
2023-05-16T02:21:19.147Z,11.31
2023-05-16T02:22:19.847Z,11.27
2023-05-16T02:23:20.550Z,11.34
2023-05-16T02:24:21.269Z,11.35
2023-05-16T02:25:22.009Z,11.19
2023-05-16T02:26:22.861Z,11.2
2023-05-16T02:27:23.680Z,11.37
2023-05-16T02:28:24.202Z,11.26
2023-05-16T02:29:24.943Z,11.31
2023-05-16T02:30:25.279Z,11.26
2023-05-16T02:31:26.001Z,11.31
2023-05-16T02:32:27.261Z,11.31
2023-05-16T02:33:27.133Z,11.31
2023-05-16T02:34:27.869Z,11.3
2023-05-16T02:35:29.368Z,11.22
2023-05-16T02:36:29.229Z,11.22
2023-05-16T02:37:29.580Z,11.18
2023-05-16T02:38:30.387Z,11.22
2023-05-16T02:39:31.101Z,11.16
2023-05-16T02:40:31.801Z,11.22
2023-05-16T02:41:32.531Z,11.22
2023-05-16T02:42:33.454Z,11.19
2023-05-16T02:43:33.564Z,11.22
2023-05-16T02:44:34.010Z,11.22
2023-05-16T02:45:35.087Z,11.25
2023-05-16T02:46:36.317Z,11.23
2023-05-16T02:47:36.427Z,11.19
2023-05-16T02:48:37.031Z,11.19
2023-05-16T02:49:37.844Z,11.22
2023-05-16T02:50:38.366Z,11.19
2023-05-16T02:51:38.950Z,11.2
2023-05-16T02:52:39.933Z,11.2
2023-05-16T02:53:40.643Z,11.25
2023-05-16T02:54:40.964Z,11.2
2023-05-16T02:55:41.808Z,11.15
2023-05-16T02:56:42.120Z,11.26
2023-05-16T02:57:42.547Z,11.16
2023-05-16T02:58:43.241Z,11.19
2023-05-16T02:59:44.148Z,11.2
2023-05-16T03:00:45.065Z,11.26
2023-05-16T03:01:46.110Z,11.19
2023-05-16T03:02:46.244Z,11.2
2023-05-16T03:03:47.280Z,11.2
2023-05-16T03:04:46.659Z,11.2
2023-05-16T03:05:47.826Z,11.16
2023-05-16T03:06:48.735Z,11.27
2023-05-16T03:07:49.305Z,11.2
2023-05-16T03:08:49.813Z,11.25
2023-05-16T03:09:50.527Z,11.19
2023-05-16T03:10:51.079Z,11.23
2023-05-16T03:11:51.797Z,11.23
2023-05-16T03:12:52.517Z,11.23
2023-05-16T03:13:52.865Z,11.26
2023-05-16T03:14:53.259Z,11.23
2023-05-16T03:15:54.550Z,11.25
2023-05-16T03:16:55.342Z,11.19
2023-05-16T03:17:55.951Z,11.2
2023-05-16T03:18:56.614Z,11.25
2023-05-16T03:19:56.800Z,11.18
2023-05-16T03:20:57.286Z,11.26
2023-05-16T03:21:57.790Z,11.2
2023-05-16T03:22:58.550Z,11.22
2023-05-16T03:23:59.371Z,11.2
2023-05-16T03:25:00.029Z,11.15
2023-05-16T03:26:00.533Z,11.1
2023-05-16T03:27:01.255Z,11.16
2023-05-16T03:28:01.476Z,11.18
2023-05-16T03:29:02.159Z,11.18
2023-05-16T03:30:03.089Z,11.15
2023-05-16T03:31:03.681Z,11.15
2023-05-16T03:32:04.515Z,11.16
2023-05-16T03:33:05.882Z,11.1
2023-05-16T03:34:05.858Z,11.15
2023-05-16T03:35:06.616Z,11.15
2023-05-16T03:36:07.529Z,11.15
2023-05-16T03:37:07.814Z,11.12
2023-05-16T03:38:08.474Z,11.18
2023-05-16T03:39:08.988Z,11.12
2023-05-16T03:40:09.487Z,11.15
2023-05-16T03:41:09.993Z,11.13
2023-05-16T03:42:10.496Z,11.16
2023-05-16T03:43:11.387Z,11.16
2023-05-16T03:44:12.095Z,11.16
2023-05-16T03:45:12.946Z,11.1
2023-05-16T03:46:14.259Z,11.16
2023-05-16T03:47:14.413Z,11.15
2023-05-16T03:48:15.301Z,11.15
2023-05-16T03:49:16.474Z,11.16
2023-05-16T03:50:16.452Z,11.13
2023-05-16T03:51:17.183Z,11.2
2023-05-16T03:52:17.875Z,11.25
2023-05-16T03:53:18.368Z,11.2
2023-05-16T03:54:19.275Z,11.19
2023-05-16T03:55:20.182Z,11.2
2023-05-16T03:56:20.566Z,11.19
2023-05-16T03:57:21.077Z,11.18
2023-05-16T03:58:21.734Z,11.19
2023-05-16T03:59:22.239Z,11.19
2023-05-16T04:00:22.986Z,11.18
2023-05-16T04:01:23.503Z,11.26
2023-05-16T04:02:24.859Z,11.22
2023-05-16T04:03:24.748Z,11.2
2023-05-16T04:04:24.804Z,11.19
2023-05-16T04:05:26.820Z,11.22
2023-05-16T04:06:26.681Z,11.16
2023-05-16T04:07:29.745Z,11.22
2023-05-16T04:09:28.556Z,11.18
2023-05-16T04:10:29.067Z,11.22
2023-05-16T04:11:29.908Z,11.22
2023-05-16T04:12:30.500Z,11.25
2023-05-16T04:13:31.567Z,11.22
2023-05-16T04:14:32.415Z,11.25
2023-05-16T04:15:33.689Z,11.15
2023-05-16T04:16:34.667Z,11.12
2023-05-16T04:17:34.765Z,11.15
2023-05-16T04:18:35.340Z,11.23
2023-05-16T04:19:36.407Z,11.19
2023-05-16T04:20:38.655Z,11.16
2023-05-16T04:22:37.751Z,11.19
2023-05-16T04:23:38.466Z,11.22
2023-05-16T04:24:39.232Z,11.25
2023-05-16T04:25:40.220Z,11.19
2023-05-16T04:26:40.764Z,11.22
2023-05-16T04:27:41.566Z,11.12
2023-05-16T04:28:41.790Z,11.26
2023-05-16T04:29:42.333Z,11.23
2023-05-16T04:30:42.871Z,11.19
2023-05-16T04:31:43.822Z,11.2
2023-05-16T04:32:43.780Z,11.23
2023-05-16T04:33:44.485Z,11.25
2023-05-16T04:34:46.372Z,11.26
2023-05-16T04:35:46.514Z,11.26
2023-05-16T04:36:46.222Z,11.19
2023-05-16T04:37:46.724Z,11.19
2023-05-16T04:38:47.355Z,11.18
2023-05-16T04:39:48.111Z,11.23
2023-05-16T04:40:48.595Z,11.27
2023-05-16T04:41:49.302Z,11.22
2023-05-16T04:42:50.028Z,11.26
2023-05-16T04:43:50.738Z,11.3
2023-05-16T04:44:51.245Z,11.22
2023-05-16T04:45:52.387Z,11.3
2023-05-16T04:46:53.857Z,11.22
2023-05-16T04:47:53.730Z,11.34
2023-05-16T04:48:53.785Z,11.26
2023-05-16T04:49:54.533Z,11.33
2023-05-16T04:50:55.348Z,11.33
2023-05-16T04:51:55.856Z,11.34
2023-05-16T04:52:57.073Z,11.31
2023-05-16T04:53:56.790Z,11.34
2023-05-16T04:54:57.296Z,11.37
2023-05-16T04:55:57.981Z,11.27
2023-05-16T04:56:58.115Z,11.34
2023-05-16T04:57:58.643Z,11.33
2023-05-16T04:58:59.217Z,11.3
2023-05-16T04:59:59.616Z,11.3
2023-05-16T05:01:02.163Z,11.35
2023-05-16T05:02:01.120Z,11.4
2023-05-16T05:03:01.149Z,11.35
2023-05-16T05:04:01.472Z,11.33
2023-05-16T05:05:02.201Z,11.34
2023-05-16T05:06:02.473Z,11.35
2023-05-16T05:07:03.174Z,11.33
2023-05-16T05:08:03.877Z,11.41
2023-05-16T05:09:04.494Z,11.38
2023-05-16T05:10:04.588Z,11.33
2023-05-16T05:11:05.796Z,11.4
2023-05-16T05:12:06.514Z,11.35
2023-05-16T05:13:07.275Z,11.34
2023-05-16T05:14:08.013Z,11.31
2023-05-16T05:15:08.507Z,11.3
2023-05-16T05:16:09.038Z,11.35
2023-05-16T05:17:09.918Z,11.4
2023-05-16T05:18:10.040Z,11.35
2023-05-16T05:19:11.401Z,11.38
2023-05-16T05:20:11.785Z,11.33
2023-05-16T05:21:12.346Z,11.3
2023-05-16T05:22:13.248Z,11.34
2023-05-16T05:23:13.798Z,11.41
2023-05-16T05:24:14.762Z,11.3
2023-05-16T05:25:15.678Z,11.31
2023-05-16T05:26:16.460Z,11.33
2023-05-16T05:27:17.345Z,11.43
2023-05-16T05:28:17.701Z,11.27
2023-05-16T05:29:18.223Z,11.35
2023-05-16T05:30:18.945Z,11.37
2023-05-16T05:31:19.089Z,11.2
2023-05-16T05:32:19.531Z,11.25
2023-05-16T05:33:19.593Z,11.16
2023-05-16T05:34:20.153Z,11.15
2023-05-16T05:35:20.886Z,11.16
2023-05-16T05:36:21.672Z,11.13
2023-05-16T05:37:21.396Z,11.15
2023-05-16T05:38:21.970Z,11.12
2023-05-16T05:39:22.449Z,11.12
2023-05-16T05:40:22.932Z,11.16
2023-05-16T05:41:23.832Z,11.16
2023-05-16T05:42:24.099Z,11.25
2023-05-16T05:43:24.853Z,11.16
2023-05-16T05:44:25.371Z,11.23
2023-05-16T05:45:26.222Z,11.22
2023-05-16T05:46:26.332Z,11.18
2023-05-16T05:47:27.653Z,11.26
2023-05-16T05:48:27.958Z,11.16
2023-05-16T05:50:28.586Z,11.25
2023-05-16T05:51:29.337Z,11.3
2023-05-16T05:52:29.835Z,11.31
2023-05-16T05:53:30.455Z,11.27
2023-05-16T05:54:31.082Z,11.27
2023-05-16T05:55:32.386Z,11.34
2023-05-16T05:56:32.093Z,11.26
2023-05-16T05:57:32.596Z,11.35
2023-05-16T05:58:33.224Z,11.33
2023-05-16T05:59:33.670Z,11.31
2023-05-16T06:00:34.378Z,11.33
2023-05-16T06:01:35.430Z,11.33
2023-05-16T06:02:35.822Z,11.34
2023-05-16T06:03:35.715Z,11.37
2023-05-16T06:04:36.485Z,11.37
2023-05-16T06:05:37.589Z,11.37
2023-05-16T06:06:37.528Z,11.35
2023-05-16T06:07:38.271Z,11.4
2023-05-16T06:08:39.202Z,11.41
2023-05-16T06:09:39.495Z,11.33
2023-05-16T06:10:40.190Z,11.4
2023-05-16T06:11:40.912Z,11.35
2023-05-16T06:12:41.585Z,11.4
2023-05-16T06:13:42.122Z,11.38
2023-05-16T06:14:42.616Z,11.43
2023-05-16T06:15:43.296Z,11.44
2023-05-16T06:16:44.210Z,11.45
2023-05-16T06:17:44.728Z,11.43
2023-05-16T06:18:45.185Z,11.44
2023-05-16T06:19:45.244Z,11.45
2023-05-16T06:20:45.980Z,11.44
2023-05-16T06:21:45.936Z,11.43
2023-05-16T06:22:46.491Z,11.52
2023-05-16T06:23:47.174Z,11.55
2023-05-16T06:24:47.503Z,11.56
2023-05-16T06:25:48.438Z,11.53
2023-05-16T06:26:49.129Z,11.55
2023-05-16T06:27:49.427Z,11.58
2023-05-16T06:28:49.909Z,11.58
2023-05-16T06:29:50.530Z,11.59
2023-05-16T06:30:51.451Z,11.59
2023-05-16T06:31:52.856Z,11.53
2023-05-16T06:32:53.353Z,11.55
2023-05-16T06:33:54.024Z,11.56
2023-05-16T06:34:54.550Z,11.55
2023-05-16T06:35:55.831Z,11.58
2023-05-16T06:37:56.063Z,11.53
2023-05-16T06:38:56.352Z,11.56
2023-05-16T06:39:57.153Z,11.52
2023-05-16T06:40:57.312Z,11.58
2023-05-16T06:42:01.743Z,11.58
2023-05-16T06:43:59.155Z,11.55
2023-05-16T06:45:00.111Z,11.63
2023-05-16T06:46:01.291Z,11.55
2023-05-16T06:47:01.440Z,11.59
2023-05-16T06:48:03.584Z,11.58
2023-05-16T06:51:03.225Z,11.58
2023-05-16T06:52:04.160Z,11.59
2023-05-16T06:53:04.252Z,11.55
2023-05-16T06:54:05.746Z,11.58
2023-05-16T06:56:05.921Z,11.53
2023-05-16T06:57:06.611Z,11.55
2023-05-16T06:58:07.307Z,11.48
2023-05-16T06:59:07.893Z,11.58
2023-05-16T07:00:09.107Z,11.52
2023-05-16T07:01:09.897Z,11.56
2023-05-16T07:02:10.865Z,11.52
2023-05-16T07:03:12.499Z,11.48
2023-05-16T07:04:12.474Z,11.53
2023-05-16T07:05:13.247Z,11.51
2023-05-16T07:06:13.330Z,11.55
2023-05-16T07:07:13.512Z,11.53
2023-05-16T07:08:13.799Z,11.44
2023-05-16T07:09:13.849Z,11.58
2023-05-16T07:10:14.466Z,11.45
2023-05-16T07:11:15.142Z,11.58
2023-05-16T07:12:15.837Z,11.59
2023-05-16T07:13:16.734Z,11.55
2023-05-16T07:14:17.223Z,11.53
2023-05-16T07:15:18.025Z,11.59
2023-05-16T07:16:19.106Z,11.53
2023-05-16T07:17:19.190Z,11.6
2023-05-16T07:18:20.135Z,11.58
2023-05-16T07:19:20.426Z,11.58
2023-05-16T07:20:20.569Z,11.59
2023-05-16T07:21:21.258Z,11.67
2023-05-16T07:22:21.162Z,11.68
2023-05-16T07:23:21.912Z,11.63
2023-05-16T07:24:22.831Z,11.7
2023-05-16T07:25:23.340Z,11.65
2023-05-16T07:26:24.644Z,11.73
2023-05-16T07:27:26.941Z,11.63
2023-05-16T07:29:25.991Z,11.63
2023-05-16T07:30:26.652Z,11.65
2023-05-16T07:31:27.237Z,11.59
2023-05-16T07:32:27.716Z,11.56
2023-05-16T07:33:28.508Z,11.48
2023-05-16T07:34:28.414Z,11.45
2023-05-16T07:35:29.731Z,11.52
2023-05-16T07:36:29.603Z,11.52
2023-05-16T07:37:31.654Z,11.49
2023-05-16T07:38:31.152Z,11.45
2023-05-16T07:39:32.450Z,11.45
2023-05-16T07:40:33.504Z,11.51
2023-05-16T07:41:33.424Z,11.56
2023-05-16T07:42:34.354Z,11.52
2023-05-16T07:43:36.177Z,11.52
2023-05-16T07:44:36.162Z,11.59
2023-05-16T07:45:37.193Z,11.58
2023-05-16T07:46:38.207Z,11.59
2023-05-16T07:47:38.351Z,11.53
2023-05-16T07:48:39.581Z,11.6
2023-05-16T07:49:39.711Z,11.6
2023-05-16T07:50:40.384Z,11.6
2023-05-16T07:51:40.419Z,11.62
2023-05-16T07:52:41.390Z,11.62
2023-05-16T07:53:42.105Z,11.59
2023-05-16T07:54:43.445Z,11.7
2023-05-16T07:55:43.204Z,11.6
2023-05-16T07:56:43.920Z,11.68
2023-05-16T07:57:44.630Z,11.62
2023-05-16T07:58:45.601Z,11.63
2023-05-16T07:59:46.046Z,11.67
2023-05-16T08:00:46.585Z,11.74
2023-05-16T08:01:47.491Z,11.7
2023-05-16T08:02:48.937Z,11.73
2023-05-16T08:03:49.375Z,11.73
2023-05-16T08:04:49.356Z,11.74
2023-05-16T08:05:50.217Z,11.76
2023-05-16T08:06:50.455Z,11.81
2023-05-16T08:07:50.419Z,11.81
2023-05-16T08:08:51.390Z,11.74
2023-05-16T08:09:52.355Z,11.76
2023-05-16T08:10:53.298Z,11.83
2023-05-16T08:11:53.253Z,11.77
2023-05-16T08:12:53.641Z,11.8
2023-05-16T08:13:53.577Z,11.81
2023-05-16T08:14:54.190Z,11.85
2023-05-16T08:15:55.255Z,11.88
2023-05-16T08:16:55.657Z,11.85
2023-05-16T08:17:56.755Z,11.81
2023-05-16T08:18:57.247Z,11.86
2023-05-16T08:19:57.327Z,11.85
2023-05-16T08:20:58.501Z,11.85
2023-05-16T08:21:59.677Z,11.91
2023-05-16T08:22:59.444Z,11.89
2023-05-16T08:24:00.609Z,11.95
2023-05-16T08:25:01.160Z,11.88
2023-05-16T08:26:01.908Z,11.86
2023-05-16T08:27:03.044Z,11.88
2023-05-16T08:28:02.973Z,11.97
2023-05-16T08:29:03.702Z,11.89
2023-05-16T08:30:04.202Z,11.88
2023-05-16T08:31:05.439Z,11.88
2023-05-16T08:32:06.359Z,11.95
2023-05-16T08:33:07.465Z,11.95
2023-05-16T08:34:08.400Z,11.93
2023-05-16T08:35:08.913Z,11.95
2023-05-16T08:36:09.985Z,11.95
2023-05-16T08:37:10.691Z,12.02
2023-05-16T08:38:10.976Z,12.05
2023-05-16T08:39:11.477Z,12.1
2023-05-16T08:40:12.474Z,12.07
2023-05-16T08:41:13.364Z,12.18
2023-05-16T08:42:13.416Z,12.08
2023-05-16T08:43:14.200Z,12.17
2023-05-16T08:44:14.115Z,12.08
2023-05-16T08:45:15.047Z,12.1
2023-05-16T08:46:15.419Z,12.17
2023-05-16T08:47:16.767Z,12.2
2023-05-16T08:48:16.856Z,12.26
2023-05-16T08:49:17.158Z,12.3
2023-05-16T08:50:18.060Z,12.21
2023-05-16T08:51:19.759Z,12.28
2023-05-16T08:52:19.345Z,12.28
2023-05-16T08:53:20.136Z,12.28
2023-05-16T08:54:20.262Z,12.18
2023-05-16T08:55:21.017Z,12.33
2023-05-16T08:56:21.684Z,12.26
2023-05-16T08:57:22.408Z,12.28
2023-05-16T08:58:23.364Z,12.18
2023-05-16T08:59:23.675Z,12.29
2023-05-16T09:00:24.421Z,12.29
2023-05-16T09:01:24.807Z,12.32
2023-05-16T09:02:25.173Z,12.28
2023-05-16T09:03:26.566Z,12.28
2023-05-16T09:04:27.923Z,12.26
2023-05-16T09:05:30.266Z,12.2
2023-05-16T09:06:29.377Z,12.29
2023-05-16T09:07:43.096Z,12.32
2023-05-16T09:09:31.086Z,12.4
2023-05-16T09:10:31.567Z,12.39
2023-05-16T09:11:32.281Z,12.44
2023-05-16T09:12:32.458Z,12.45
2023-05-16T09:13:33.360Z,12.51
2023-05-16T09:14:34.416Z,12.54
2023-05-16T09:15:35.328Z,12.57
2023-05-16T09:16:36.294Z,12.63
2023-05-16T09:17:47.963Z,12.62
2023-05-16T09:19:38.745Z,12.55
2023-05-16T09:20:38.521Z,12.58
2023-05-16T09:21:39.377Z,12.54
2023-05-16T09:22:40.068Z,12.61
2023-05-16T09:23:43.333Z,12.63
2023-05-16T09:25:43.387Z,12.55
2023-05-16T09:26:43.490Z,12.65
2023-05-16T09:27:44.364Z,12.62
2023-05-16T09:28:44.937Z,12.58
2023-05-16T09:29:46.029Z,12.57
2023-05-16T09:30:46.987Z,12.55
2023-05-16T09:31:48.039Z,12.53
2023-05-16T09:32:47.886Z,12.58
2023-05-16T09:33:48.784Z,12.55
2023-05-16T09:34:50.005Z,12.51
2023-05-16T09:35:52.117Z,12.51
2023-05-16T09:37:51.621Z,12.47
2023-05-16T09:38:52.455Z,12.48
2023-05-16T09:39:52.465Z,12.44
2023-05-16T09:40:52.959Z,12.4
2023-05-16T09:41:53.925Z,12.45
2023-05-16T09:42:55.057Z,12.36
2023-05-16T09:43:55.424Z,12.39
2023-05-16T09:44:55.352Z,12.4
2023-05-16T09:45:55.982Z,12.3
2023-05-16T09:46:56.842Z,12.36
2023-05-16T09:47:56.859Z,12.33
2023-05-16T09:48:57.912Z,12.3
2023-05-16T09:49:58.883Z,12.28
2023-05-16T09:51:02.829Z,12.37
2023-05-16T09:53:00.617Z,12.37
2023-05-16T09:54:01.427Z,12.33
2023-05-16T09:55:02.380Z,12.36
2023-05-16T09:56:03.350Z,12.36
2023-05-16T09:57:03.612Z,12.33
2023-05-16T09:58:04.300Z,12.37
2023-05-16T09:59:05.518Z,12.37
2023-05-16T10:00:06.436Z,12.36
2023-05-16T10:01:07.122Z,12.39
2023-05-16T10:02:08.204Z,12.47
2023-05-16T10:03:11.104Z,12.53
2023-05-16T10:05:09.317Z,12.54
2023-05-16T10:06:10.048Z,12.54
2023-05-16T10:07:11.195Z,12.5
2023-05-16T10:08:12.253Z,12.55
2023-05-16T10:09:13.095Z,12.54
2023-05-16T10:10:12.996Z,12.58
2023-05-16T10:11:14.054Z,12.57
2023-05-16T10:12:14.354Z,12.7
2023-05-16T10:13:15.075Z,12.7
2023-05-16T10:14:15.751Z,12.69
2023-05-16T10:15:16.686Z,12.68
2023-05-16T10:16:17.595Z,12.7
2023-05-16T10:17:17.279Z,12.78
2023-05-16T10:18:18.411Z,12.65
2023-05-16T10:19:19.509Z,12.75
2023-05-16T10:20:19.874Z,12.68
2023-05-16T10:21:19.776Z,12.78
2023-05-16T10:22:20.680Z,12.83
2023-05-16T10:23:21.353Z,12.83
2023-05-16T10:24:22.490Z,12.81
2023-05-16T10:25:22.280Z,12.83
2023-05-16T10:26:22.761Z,12.8
2023-05-16T10:27:25.009Z,12.88
2023-05-16T10:29:25.084Z,12.93
2023-05-16T10:30:25.798Z,12.76
2023-05-16T10:31:26.643Z,12.81
2023-05-16T10:32:27.659Z,12.83
2023-05-16T10:33:28.624Z,12.8
2023-05-16T10:34:29.504Z,12.81
2023-05-16T10:35:29.900Z,12.88
2023-05-16T10:36:30.328Z,12.88
2023-05-16T10:37:31.728Z,12.84
2023-05-16T10:38:32.476Z,12.91
2023-05-16T10:39:33.065Z,12.91
2023-05-16T10:40:33.771Z,12.8
2023-05-16T10:41:34.267Z,12.84
2023-05-16T10:42:34.998Z,12.83
2023-05-16T10:43:35.510Z,12.84
2023-05-16T10:44:36.598Z,12.81
2023-05-16T10:45:37.198Z,12.75
2023-05-16T10:46:37.225Z,12.72
2023-05-16T10:47:38.505Z,12.58
2023-05-16T10:48:38.541Z,12.51
2023-05-16T10:49:39.536Z,12.44
2023-05-16T10:50:40.712Z,12.43
2023-05-16T10:51:41.242Z,12.45
2023-05-16T10:52:41.823Z,12.43
2023-05-16T10:53:42.733Z,12.35
2023-05-16T10:54:43.681Z,12.36
2023-05-16T10:55:44.409Z,12.35
2023-05-16T10:56:44.994Z,12.36
2023-05-16T10:57:45.915Z,12.33
2023-05-16T10:58:46.048Z,12.36
2023-05-16T10:59:46.898Z,12.28
2023-05-16T11:00:47.682Z,12.33
2023-05-16T11:01:48.492Z,12.37
2023-05-16T11:02:49.492Z,12.37
2023-05-16T11:03:49.982Z,12.37
2023-05-16T11:04:50.637Z,12.37
2023-05-16T11:05:51.432Z,12.37
2023-05-16T11:06:52.120Z,12.43
2023-05-16T11:07:53.023Z,12.39
2023-05-16T11:08:53.529Z,12.33
2023-05-16T11:09:54.584Z,12.36
2023-05-16T11:10:54.563Z,12.36
2023-05-16T11:11:55.516Z,12.47
2023-05-16T11:12:55.972Z,12.4
2023-05-16T11:13:56.460Z,12.45
2023-05-16T11:14:56.735Z,12.37
2023-05-16T11:15:57.608Z,12.43
2023-05-16T11:16:58.316Z,12.45
2023-05-16T11:17:58.331Z,12.51
2023-05-16T11:18:59.531Z,12.54
2023-05-16T11:20:00.598Z,12.54
2023-05-16T11:21:00.748Z,12.53
2023-05-16T11:22:01.902Z,12.47
2023-05-16T11:23:02.876Z,12.51
2023-05-16T11:24:03.804Z,12.51
2023-05-16T11:25:04.936Z,12.55
2023-05-16T11:26:05.759Z,12.61
2023-05-16T11:27:06.507Z,12.54
2023-05-16T11:28:07.248Z,12.54
2023-05-16T11:29:07.959Z,12.57
2023-05-16T11:30:09.739Z,12.62
2023-05-16T11:31:09.614Z,12.63
2023-05-16T11:32:10.471Z,12.68
2023-05-16T11:33:11.402Z,12.65
2023-05-16T11:34:12.453Z,12.81
2023-05-16T11:35:15.458Z,12.76
2023-05-16T11:36:22.184Z,12.86
2023-05-16T11:38:15.005Z,12.81
2023-05-16T11:39:16.233Z,12.81
2023-05-16T11:40:16.562Z,12.8
2023-05-16T11:41:17.656Z,12.83
2023-05-16T11:42:18.172Z,12.8
2023-05-16T11:43:19.099Z,12.83
2023-05-16T11:44:19.581Z,12.83
2023-05-16T11:45:20.323Z,12.78
2023-05-16T11:46:20.664Z,12.78
2023-05-16T11:47:21.525Z,12.8
2023-05-16T11:48:37.231Z,12.83
2023-05-16T11:50:23.289Z,12.8
2023-05-16T11:51:24.360Z,12.75
2023-05-16T11:52:25.138Z,12.81
2023-05-16T11:53:25.849Z,12.75
2023-05-16T11:54:26.031Z,12.78
2023-05-16T11:57:28.367Z,12.63
2023-05-16T11:58:28.795Z,12.65
2023-05-16T11:59:29.741Z,12.66
2023-05-16T12:00:30.294Z,12.61
2023-05-16T12:01:31.344Z,12.65
2023-05-16T12:02:32.279Z,12.55
2023-05-16T12:03:32.877Z,12.68
2023-05-16T12:04:34.078Z,12.54
2023-05-16T12:05:36.225Z,12.65
2023-05-16T12:06:34.884Z,12.62
2023-05-16T12:07:35.799Z,12.66
2023-05-16T12:08:35.883Z,12.66
2023-05-16T12:09:36.414Z,12.55
2023-05-16T12:10:37.519Z,12.54
2023-05-16T12:11:38.757Z,12.55
2023-05-16T12:12:38.740Z,12.62
2023-05-16T12:13:39.191Z,12.65
2023-05-16T12:14:39.730Z,12.61
2023-05-16T12:15:40.358Z,12.68
2023-05-16T12:16:40.991Z,12.66
2023-05-16T12:17:42.112Z,12.61
2023-05-16T12:18:44.329Z,12.65
2023-05-16T12:19:43.174Z,12.61
2023-05-16T12:20:44.022Z,12.62
2023-05-16T12:21:44.812Z,12.66
2023-05-16T12:22:45.333Z,12.58
2023-05-16T12:23:46.391Z,12.51
2023-05-16T12:24:46.628Z,12.58
2023-05-16T12:25:47.584Z,12.54
2023-05-16T12:26:48.657Z,12.61
2023-05-16T12:27:51.200Z,12.55
2023-05-16T12:29:49.847Z,12.54
2023-05-16T12:30:50.986Z,12.53
2023-05-16T12:31:52.033Z,12.54
2023-05-16T12:32:52.733Z,12.54
2023-05-16T12:33:53.236Z,12.61
2023-05-16T12:34:53.588Z,12.62
2023-05-16T12:35:54.679Z,12.55
2023-05-16T12:36:55.629Z,12.62
2023-05-16T12:37:56.170Z,12.66
2023-05-16T12:38:57.339Z,12.63
2023-05-16T12:39:57.591Z,12.61
2023-05-16T12:40:58.703Z,12.68
2023-05-16T12:41:59.780Z,12.83
2023-05-16T12:42:59.852Z,12.78
2023-05-16T12:44:00.715Z,12.9
2023-05-16T12:45:01.610Z,12.8
2023-05-16T12:46:02.542Z,12.81
2023-05-16T12:47:02.852Z,12.88
2023-05-16T12:48:03.670Z,12.88
2023-05-16T12:49:04.414Z,12.9
2023-05-16T12:50:05.308Z,12.86
2023-05-16T12:51:06.035Z,12.93
2023-05-16T12:52:07.053Z,12.9
2023-05-16T12:53:08.213Z,12.98
2023-05-16T12:54:16.719Z,12.91
2023-05-16T12:55:17.798Z,13.02
2023-05-16T12:56:18.301Z,12.98
2023-05-16T12:57:19.374Z,12.95
2023-05-16T12:58:19.749Z,13.03
2023-05-16T12:59:19.694Z,12.98
2023-05-16T13:00:20.476Z,12.99
2023-05-16T13:01:20.811Z,13.06
2023-05-16T13:02:20.562Z,13.02
2023-05-16T13:03:22.225Z,13.03
2023-05-16T13:04:22.992Z,13.01
2023-05-16T13:05:23.117Z,13.08
2023-05-16T13:06:23.249Z,13.06
2023-05-16T13:07:23.987Z,13.17
2023-05-16T13:08:24.095Z,13.17
2023-05-16T13:09:25.036Z,13.12
2023-05-16T13:10:25.870Z,13.16
2023-05-16T13:11:25.881Z,13.11
2023-05-16T13:12:26.813Z,13.09
2023-05-16T13:13:41.276Z,13.12
2023-05-16T13:15:30.507Z,13.13
2023-05-16T13:16:30.808Z,13.17
2023-05-16T13:17:31.056Z,13.17
2023-05-16T13:18:32.356Z,13.21
2023-05-16T13:19:32.831Z,13.24
2023-05-16T13:20:32.569Z,13.19
2023-05-16T13:21:33.202Z,13.12
2023-05-16T13:22:33.468Z,13.24
2023-05-16T13:23:33.780Z,13.23
2023-05-16T13:24:33.914Z,13.23
2023-05-16T13:25:34.714Z,13.21
2023-05-16T13:27:35.445Z,13.37